Nautical Runa — D5JA6 — position and weather

sailwx.info

Track history (hours):
 
Tides and Currents Weather Stations Pressure Air Temp Water Temp Dewpoint Dewpoint Depression Visibility Wind Speed Wind Dir Waves Ship Positions

Nautical Runa

Last reported at 2018-Feb-22 05:13 UTC. Time now 2018-Feb-23 04:24 UTC.
Position N 29°44' W 095°16'.

Length 200 m; draft 10.4 m.

Type: Cargo ship. MMSI: 636017043.

Date/timePositionNaut miles runAvg speedWind from/ knotsBaromVisibWave heightAir tempDewpointWater temp
2018-Feb-22 05:13N 29°44' W 095°16'0 0.8
2018-Feb-22 05:00N 29°44' W 095°16'2 3.1
2018-Feb-22 04:30N 29°43' W 095°15'2 4.5
2018-Feb-22 04:00N 29°44' W 095°12'2 5.0
2018-Feb-22 03:30N 29°45' W 095°10'3 5.3
2018-Feb-22 03:01N 29°44' W 095°07'2 4.9
2018-Feb-22 02:30N 29°45' W 095°04'3 6.1
2018-Feb-22 02:00N 29°43' W 095°01'4 8.8
2018-Feb-22 01:30N 29°39' W 094°58'611.0
2018-Feb-22 01:00N 29°34' W 094°56'611.4
2018-Feb-22 00:30N 29°30' W 094°52'611.7
2018-Feb-22 00:00N 29°24' W 094°49'23 1.5
2018-Feb-21 08:28N 29°06' W 094°33'511.6
2018-Feb-21 08:00N 29°00' W 094°32'5 9.5
2018-Feb-21 07:27N 28°55' W 094°31'4 8.0
2018-Feb-21 06:59N 28°59' W 094°31'610.5
2018-Feb-21 06:23N 29°05' W 094°31'2 5.4
2018-Feb-21 05:58N 29°08' W 094°32'0 0.1
2018-Feb-21 04:04N 29°08' W 094°32'0 0.1
2018-Feb-21 03:58N 29°08' W 094°32'0 0.0
2018-Feb-21 03:22N 29°08' W 094°32'0 0.0
2018-Feb-21 02:58N 29°08' W 094°32'0 0.0
2018-Feb-21 02:28N 29°08' W 094°32'0 0.0
2018-Feb-20 23:52N 29°08' W 094°32'0 0.3
2018-Feb-20 23:25N 29°08' W 094°32'1 1.9
2018-Feb-20 22:58N 29°07' W 094°33'4 5.7
2018-Feb-20 22:14N 29°11' W 094°32'2 9.7
2018-Feb-20 21:59N 29°14' W 094°32'3 5.1
2018-Feb-20 21:28N 29°11' W 094°33'11 5.8
2018-Feb-20 19:32N 29°07' W 094°45'0 0.0
2018-Feb-20 17:53N 29°07' W 094°45'0 0.0
2018-Feb-20 17:23N 29°07' W 094°45'0 0.1
2018-Feb-20 16:50N 29°07' W 094°45'0 0.0
2018-Feb-20 13:26N 29°07' W 094°45'0 0.0
2018-Feb-20 12:56N 29°07' W 094°45'0 0.0
2018-Feb-20 11:50N 29°07' W 094°45'0 0.0
2018-Feb-20 11:26N 29°07' W 094°45'0 0.0
2018-Feb-20 10:59N 29°07' W 094°45'0 0.0
2018-Feb-20 10:17N 29°07' W 094°45'0 0.0
2018-Feb-20 09:35N 29°07' W 094°45'0 0.0
2018-Feb-20 09:20N 29°07' W 094°45'0 0.0
2018-Feb-20 08:59N 29°07' W 094°45'0 0.0
2018-Feb-20 07:32N 29°07' W 094°45'0 0.0
2018-Feb-20 07:23N 29°07' W 094°45'0 0.0
2018-Feb-20 06:59N 29°07' W 094°45'0 0.0
2018-Feb-20 06:26N 29°07' W 094°45'0 0.0
2018-Feb-20 05:59N 29°07' W 094°45'0 0.0
2018-Feb-20 04:53N 29°07' W 094°45'0 0.0
2018-Feb-20 04:26N 29°07' W 094°45'0 0.0
2018-Feb-20 03:44N 29°07' W 094°45'0 0.0
2018-Feb-20 03:26N 29°07' W 094°45'0 0.0
2018-Feb-19 21:23N 29°07' W 094°45'0 0.0
2018-Feb-19 20:32N 29°07' W 094°45'0 0.0
2018-Feb-19 20:29N 29°07' W 094°45'0 0.0
2018-Feb-19 19:56N 29°07' W 094°45'0 0.0
2018-Feb-19 19:29N 29°07' W 094°45'0 0.0
2018-Feb-19 18:14N 29°07' W 094°45'0 0.0
2018-Feb-19 17:53N 29°07' W 094°45'0 0.0
2018-Feb-19 17:20N 29°07' W 094°45'0 0.0
2018-Feb-19 16:56N 29°07' W 094°45'0 0.0
2018-Feb-19 16:29N 29°07' W 094°45'0 0.0
2018-Feb-19 15:59N 29°07' W 094°45'0 0.0
2018-Feb-19 15:29N 29°07' W 094°45'0 0.0
2018-Feb-19 14:59N 29°07' W 094°45'0 0.0
2018-Feb-19 14:17N 29°07' W 094°45'0 0.0
2018-Feb-19 13:56N 29°07' W 094°45'0 0.0
2018-Feb-19 13:29N 29°07' W 094°45'0 0.0
2018-Feb-19 12:56N 29°07' W 094°45'0 0.0
2018-Feb-19 12:29N 29°07' W 094°45'0 0.0
2018-Feb-19 11:56N 29°07' W 094°45'0 0.0
2018-Feb-19 11:23N 29°07' W 094°45'0 0.0
2018-Feb-19 10:56N 29°07' W 094°45'0 0.0
2018-Feb-19 10:26N 29°07' W 094°45'0 0.0
2018-Feb-19 09:53N 29°07' W 094°45'0 0.0
2018-Feb-19 09:29N 29°07' W 094°45'0 0.0
2018-Feb-19 08:59N 29°07' W 094°45'0 0.0
2018-Feb-19 08:29N 29°07' W 094°45'0 0.0
2018-Feb-19 07:59N 29°07' W 094°45'0 0.0
2018-Feb-19 07:29N 29°07' W 094°45'0 0.0
2018-Feb-19 06:59N 29°07' W 094°45'0 0.0
2018-Feb-19 06:20N 29°07' W 094°45'0 0.0
2018-Feb-19 05:59N 29°07' W 094°45'0 0.0
2018-Feb-19 05:26N 29°07' W 094°45'0 0.0
2018-Feb-19 04:59N 29°07' W 094°45'0 0.0
2018-Feb-19 04:29N 29°07' W 094°45'0 0.0
2018-Feb-19 03:56N 29°07' W 094°45'0 0.0
2018-Feb-19 03:29N 29°07' W 094°45'0 0.0
2018-Feb-19 02:17N 29°07' W 094°45'0 0.0
2018-Feb-18 20:35N 29°07' W 094°45'0 0.1
2018-Feb-18 20:29N 29°07' W 094°45'0 0.0
2018-Feb-18 19:56N 29°07' W 094°45'0 0.0
2018-Feb-18 19:26N 29°07' W 094°45'0 0.0
2018-Feb-18 18:50N 29°07' W 094°45'0 0.0
2018-Feb-18 18:20N 29°07' W 094°45'0 0.0
2018-Feb-18 17:29N 29°07' W 094°45'0 0.0
2018-Feb-18 16:41N 29°07' W 094°45'0 0.0
2018-Feb-18 16:14N 29°07' W 094°45'0 0.0
2018-Feb-18 15:50N 29°07' W 094°45'0 0.0
2018-Feb-18 14:26N 29°07' W 094°45'0 0.0
2018-Feb-18 13:59N 29°07' W 094°45'0 0.0
2018-Feb-18 13:20N 29°07' W 094°45'0 0.0
2018-Feb-18 12:59N 29°07' W 094°45'0 0.0
2018-Feb-18 12:14N 29°07' W 094°45'0 0.0
2018-Feb-18 09:17N 29°07' W 094°45'0 0.0
2018-Feb-18 08:50N 29°07' W 094°45'0 0.0
2018-Feb-18 07:50N 29°07' W 094°45'0 0.0
2018-Feb-18 07:29N 29°07' W 094°45'0 0.0
2018-Feb-18 06:56N 29°07' W 094°45'0 0.0
2018-Feb-18 02:32N 29°07' W 094°45'0 0.0
2018-Feb-18 02:20N 29°07' W 094°45'0 0.0
2018-Feb-18 01:47N 29°07' W 094°45'0 0.0
2018-Feb-18 01:29N 29°07' W 094°45'0 0.0
2018-Feb-18 00:44N 29°07' W 094°45'0 0.0
2018-Feb-18 00:29N 29°07' W 094°45'0 0.0
2018-Feb-17 23:59N 29°07' W 094°45'0 0.0
2018-Feb-17 22:56N 29°07' W 094°45'0 0.0
2018-Feb-17 22:14N 29°07' W 094°45'0 0.0
2018-Feb-17 21:59N 29°07' W 094°45'0 0.0
2018-Feb-17 21:23N 29°07' W 094°45'0 0.0
2018-Feb-17 20:50N 29°07' W 094°45'0 0.0
2018-Feb-17 20:23N 29°07' W 094°45'32 4.8
2018-Feb-17 13:48N 29°02' W 094°09'513.4
2018-Feb-17 13:24N 28°59' W 094°04'513.4
2018-Feb-17 13:00N 28°56' W 093°59'713.5
2018-Feb-17 12:30N 28°52' W 093°53'713.4
2018-Feb-17 12:00N 28°48' W 093°47'713.4
2018-Feb-17 11:30N 28°44' W 093°41'713.4
2018-Feb-17 11:00N 28°40' W 093°35'713.4
2018-Feb-17 10:29N 28°36' W 093°28'713.5
2018-Feb-17 10:00N 28°32' W 093°22'713.7
2018-Feb-17 09:30N 28°28' W 093°16'813.9
2018-Feb-17 08:57N 28°23' W 093°09'  
2018-Feb-14 12:07N 26°05' W 079°26'112.3
2018-Feb-14 12:00N 26°07' W 079°26'612.5
2018-Feb-14 11:31N 26°13' W 079°25'612.2
2018-Feb-14 10:59N 26°19' W 079°25'  
Track history (hours):
 
Tides and Currents Weather Stations Pressure Air Temp Water Temp Dewpoint Dewpoint Depression Visibility Wind Speed Wind Dir Waves Ship Positions

Nautical Runa

Last reported at 2018-Feb-22 05:13 UTC. Time now 2018-Feb-23 04:24 UTC.
Position N 29°44' W 095°16'.

Length 200 m; draft 10.4 m.

Type: Cargo ship. MMSI: 636017043.

Date/timePositionNaut miles runAvg speedWind from/ knotsBaromVisibWave heightAir tempDewpointWater temp
2018-Feb-22 05:13N 29°44' W 095°16'0 0.8
2018-Feb-22 05:00N 29°44' W 095°16'2 3.1
2018-Feb-22 04:30N 29°43' W 095°15'2 4.5
2018-Feb-22 04:00N 29°44' W 095°12'2 5.0
2018-Feb-22 03:30N 29°45' W 095°10'3 5.3
2018-Feb-22 03:01N 29°44' W 095°07'2 4.9
2018-Feb-22 02:30N 29°45' W 095°04'3 6.1
2018-Feb-22 02:00N 29°43' W 095°01'4 8.8
2018-Feb-22 01:30N 29°39' W 094°58'611.0
2018-Feb-22 01:00N 29°34' W 094°56'611.4
2018-Feb-22 00:30N 29°30' W 094°52'611.7
2018-Feb-22 00:00N 29°24' W 094°49'23 1.5
2018-Feb-21 08:28N 29°06' W 094°33'511.6
2018-Feb-21 08:00N 29°00' W 094°32'5 9.5
2018-Feb-21 07:27N 28°55' W 094°31'4 8.0
2018-Feb-21 06:59N 28°59' W 094°31'610.5
2018-Feb-21 06:23N 29°05' W 094°31'2 5.4
2018-Feb-21 05:58N 29°08' W 094°32'0 0.1
2018-Feb-21 04:04N 29°08' W 094°32'0 0.1
2018-Feb-21 03:58N 29°08' W 094°32'0 0.0
2018-Feb-21 03:22N 29°08' W 094°32'0 0.0
2018-Feb-21 02:58N 29°08' W 094°32'0 0.0
2018-Feb-21 02:28N 29°08' W 094°32'0 0.0
2018-Feb-20 23:52N 29°08' W 094°32'0 0.3
2018-Feb-20 23:25N 29°08' W 094°32'1 1.9
2018-Feb-20 22:58N 29°07' W 094°33'4 5.7
2018-Feb-20 22:14N 29°11' W 094°32'2 9.7
2018-Feb-20 21:59N 29°14' W 094°32'3 5.1
2018-Feb-20 21:28N 29°11' W 094°33'11 5.8
2018-Feb-20 19:32N 29°07' W 094°45'0 0.0
2018-Feb-20 17:53N 29°07' W 094°45'0 0.0
2018-Feb-20 17:23N 29°07' W 094°45'0 0.1
2018-Feb-20 16:50N 29°07' W 094°45'0 0.0
2018-Feb-20 13:26N 29°07' W 094°45'0 0.0
2018-Feb-20 12:56N 29°07' W 094°45'0 0.0
2018-Feb-20 11:50N 29°07' W 094°45'0 0.0
2018-Feb-20 11:26N 29°07' W 094°45'0 0.0
2018-Feb-20 10:59N 29°07' W 094°45'0 0.0
2018-Feb-20 10:17N 29°07' W 094°45'0 0.0
2018-Feb-20 09:35N 29°07' W 094°45'0 0.0
2018-Feb-20 09:20N 29°07' W 094°45'0 0.0
2018-Feb-20 08:59N 29°07' W 094°45'0 0.0
2018-Feb-20 07:32N 29°07' W 094°45'0 0.0
2018-Feb-20 07:23N 29°07' W 094°45'0 0.0
2018-Feb-20 06:59N 29°07' W 094°45'0 0.0
2018-Feb-20 06:26N 29°07' W 094°45'0 0.0
2018-Feb-20 05:59N 29°07' W 094°45'0 0.0
2018-Feb-20 04:53N 29°07' W 094°45'0 0.0
2018-Feb-20 04:26N 29°07' W 094°45'0 0.0
2018-Feb-20 03:44N 29°07' W 094°45'0 0.0
2018-Feb-20 03:26N 29°07' W 094°45'0 0.0
2018-Feb-19 21:23N 29°07' W 094°45'0 0.0
2018-Feb-19 20:32N 29°07' W 094°45'0 0.0
2018-Feb-19 20:29N 29°07' W 094°45'0 0.0
2018-Feb-19 19:56N 29°07' W 094°45'0 0.0
2018-Feb-19 19:29N 29°07' W 094°45'0 0.0
2018-Feb-19 18:14N 29°07' W 094°45'0 0.0
2018-Feb-19 17:53N 29°07' W 094°45'0 0.0
2018-Feb-19 17:20N 29°07' W 094°45'0 0.0
2018-Feb-19 16:56N 29°07' W 094°45'0 0.0
2018-Feb-19 16:29N 29°07' W 094°45'0 0.0
2018-Feb-19 15:59N 29°07' W 094°45'0 0.0
2018-Feb-19 15:29N 29°07' W 094°45'0 0.0
2018-Feb-19 14:59N 29°07' W 094°45'0 0.0
2018-Feb-19 14:17N 29°07' W 094°45'0 0.0
2018-Feb-19 13:56N 29°07' W 094°45'0 0.0
2018-Feb-19 13:29N 29°07' W 094°45'0 0.0
2018-Feb-19 12:56N 29°07' W 094°45'0 0.0
2018-Feb-19 12:29N 29°07' W 094°45'0 0.0
2018-Feb-19 11:56N 29°07' W 094°45'0 0.0
2018-Feb-19 11:23N 29°07' W 094°45'0 0.0
2018-Feb-19 10:56N 29°07' W 094°45'0 0.0
2018-Feb-19 10:26N 29°07' W 094°45'0 0.0
2018-Feb-19 09:53N 29°07' W 094°45'0 0.0
2018-Feb-19 09:29N 29°07' W 094°45'0 0.0
2018-Feb-19 08:59N 29°07' W 094°45'0 0.0
2018-Feb-19 08:29N 29°07' W 094°45'0 0.0
2018-Feb-19 07:59N 29°07' W 094°45'0 0.0
2018-Feb-19 07:29N 29°07' W 094°45'0 0.0
2018-Feb-19 06:59N 29°07' W 094°45'0 0.0
2018-Feb-19 06:20N 29°07' W 094°45'0 0.0
2018-Feb-19 05:59N 29°07' W 094°45'0 0.0
2018-Feb-19 05:26N 29°07' W 094°45'0 0.0
2018-Feb-19 04:59N 29°07' W 094°45'0 0.0
2018-Feb-19 04:29N 29°07' W 094°45'0 0.0
2018-Feb-19 03:56N 29°07' W 094°45'0 0.0
2018-Feb-19 03:29N 29°07' W 094°45'0 0.0
2018-Feb-19 02:17N 29°07' W 094°45'0 0.0
2018-Feb-18 20:35N 29°07' W 094°45'0 0.1
2018-Feb-18 20:29N 29°07' W 094°45'0 0.0
2018-Feb-18 19:56N 29°07' W 094°45'0 0.0
2018-Feb-18 19:26N 29°07' W 094°45'0 0.0
2018-Feb-18 18:50N 29°07' W 094°45'0 0.0
2018-Feb-18 18:20N 29°07' W 094°45'0 0.0
2018-Feb-18 17:29N 29°07' W 094°45'0 0.0
2018-Feb-18 16:41N 29°07' W 094°45'0 0.0
2018-Feb-18 16:14N 29°07' W 094°45'0 0.0
2018-Feb-18 15:50N 29°07' W 094°45'0 0.0
2018-Feb-18 14:26N 29°07' W 094°45'0 0.0
2018-Feb-18 13:59N 29°07' W 094°45'0 0.0
2018-Feb-18 13:20N 29°07' W 094°45'0 0.0
2018-Feb-18 12:59N 29°07' W 094°45'0 0.0
2018-Feb-18 12:14N 29°07' W 094°45'0 0.0
2018-Feb-18 09:17N 29°07' W 094°45'0 0.0
2018-Feb-18 08:50N 29°07' W 094°45'0 0.0
2018-Feb-18 07:50N 29°07' W 094°45'0 0.0
2018-Feb-18 07:29N 29°07' W 094°45'0 0.0
2018-Feb-18 06:56N 29°07' W 094°45'0 0.0
2018-Feb-18 02:32N 29°07' W 094°45'0 0.0
2018-Feb-18 02:20N 29°07' W 094°45'0 0.0
2018-Feb-18 01:47N 29°07' W 094°45'0 0.0
2018-Feb-18 01:29N 29°07' W 094°45'0 0.0
2018-Feb-18 00:44N 29°07' W 094°45'0 0.0
2018-Feb-18 00:29N 29°07' W 094°45'0 0.0
2018-Feb-17 23:59N 29°07' W 094°45'0 0.0
2018-Feb-17 22:56N 29°07' W 094°45'0 0.0
2018-Feb-17 22:14N 29°07' W 094°45'0 0.0
2018-Feb-17 21:59N 29°07' W 094°45'0 0.0
2018-Feb-17 21:23N 29°07' W 094°45'0 0.0
2018-Feb-17 20:50N 29°07' W 094°45'0 0.0
2018-Feb-17 20:23N 29°07' W 094°45'32 4.8
2018-Feb-17 13:48N 29°02' W 094°09'513.4
2018-Feb-17 13:24N 28°59' W 094°04'513.4
2018-Feb-17 13:00N 28°56' W 093°59'713.5
2018-Feb-17 12:30N 28°52' W 093°53'713.4
2018-Feb-17 12:00N 28°48' W 093°47'713.4
2018-Feb-17 11:30N 28°44' W 093°41'713.4
2018-Feb-17 11:00N 28°40' W 093°35'713.4
2018-Feb-17 10:29N 28°36' W 093°28'713.5
2018-Feb-17 10:00N 28°32' W 093°22'713.7
2018-Feb-17 09:30N 28°28' W 093°16'813.9
2018-Feb-17 08:57N 28°23' W 093°09'  
2018-Feb-14 12:07N 26°05' W 079°26'112.3
2018-Feb-14 12:00N 26°07' W 079°26'612.5
2018-Feb-14 11:31N 26°13' W 079°25'612.2
2018-Feb-14 10:59N 26°19' W 079°25'  

Dump ship's entire track history